createdAt,value
2018-08-07T00:01:39.732Z,2.80
2018-08-07T00:04:07.084Z,3.33
2018-08-07T00:06:34.374Z,3.10
2018-08-07T00:09:01.510Z,2.83
2018-08-07T00:11:28.903Z,3.40
2018-08-07T00:13:56.023Z,3.10
2018-08-07T00:16:23.232Z,3.07
2018-08-07T00:18:50.841Z,2.83
2018-08-07T00:21:17.959Z,3.00
2018-08-07T00:23:45.193Z,3.27
2018-08-07T00:26:12.396Z,3.23
2018-08-07T00:28:39.634Z,3.10
2018-08-07T00:31:06.955Z,3.10
2018-08-07T00:33:34.177Z,3.20
2018-08-07T00:36:01.397Z,3.10
2018-08-07T00:38:28.588Z,3.13
2018-08-07T00:40:55.915Z,3.10
2018-08-07T00:43:23.036Z,3.10
2018-08-07T00:45:50.226Z,3.30
2018-08-07T00:48:17.460Z,3.50
2018-08-07T00:50:44.562Z,3.03
2018-08-07T00:53:11.811Z,3.23
2018-08-07T00:55:39.016Z,3.30
2018-08-07T00:58:06.207Z,3.23
2018-08-07T01:00:33.463Z,3.30
2018-08-07T01:03:00.997Z,2.93
2018-08-07T01:05:29.076Z,3.07
2018-08-07T01:07:56.203Z,3.03
2018-08-07T01:10:23.401Z,3.43
2018-08-07T01:12:50.600Z,3.37
2018-08-07T01:15:19.389Z,3.43
2018-08-07T01:17:46.967Z,3.40
2018-08-07T01:20:16.295Z,3.00
2018-08-07T01:22:44.293Z,3.13
2018-08-07T01:25:13.994Z,3.20
2018-08-07T01:27:41.158Z,2.70
2018-08-07T01:30:11.035Z,2.90
2018-08-07T01:32:38.321Z,2.83
2018-08-07T01:35:05.488Z,2.70
2018-08-07T01:37:32.701Z,3.10
2018-08-07T01:40:00.007Z,3.10
2018-08-07T01:42:27.244Z,3.10
2018-08-07T01:44:54.384Z,3.20
2018-08-07T01:47:21.965Z,3.13
2018-08-07T01:49:49.159Z,3.07
2018-08-07T01:52:16.284Z,2.70
2018-08-07T01:54:43.556Z,3.27
2018-08-07T01:57:10.688Z,3.37
2018-08-07T01:59:37.815Z,3.27
2018-08-07T02:02:05.128Z,2.87
2018-08-07T02:04:32.289Z,3.03
2018-08-07T02:06:59.571Z,2.97
2018-08-07T02:09:26.736Z,3.30
2018-08-07T02:11:53.899Z,3.10
2018-08-07T02:14:21.115Z,2.97
2018-08-07T02:16:48.284Z,3.00
2018-08-07T02:19:16.334Z,3.13
2018-08-07T02:21:43.497Z,3.20
2018-08-07T02:24:10.696Z,3.07
2018-08-07T02:26:39.896Z,3.33
2018-08-07T02:29:07.030Z,2.97
2018-08-07T02:31:34.388Z,3.00
2018-08-07T02:34:01.504Z,2.80
2018-08-07T02:36:28.646Z,3.10
2018-08-07T02:38:55.924Z,3.20
2018-08-07T02:41:23.064Z,3.30
2018-08-07T02:43:50.304Z,3.10
2018-08-07T02:46:17.476Z,3.00
2018-08-07T02:48:44.597Z,2.80
2018-08-07T02:51:11.801Z,3.00
2018-08-07T02:53:38.980Z,3.00
2018-08-07T02:56:06.240Z,3.00
2018-08-07T02:58:33.383Z,3.10
2018-08-07T03:01:00.620Z,2.97
2018-08-07T03:03:27.829Z,3.10
2018-08-07T03:05:55.002Z,3.10
2018-08-07T03:08:22.258Z,3.20
2018-08-07T03:10:49.431Z,3.23
2018-08-07T03:13:16.579Z,3.20
2018-08-07T03:15:44.195Z,3.10
2018-08-07T03:18:34.106Z,3.30
2018-08-07T03:21:01.357Z,3.60
2018-08-07T03:23:28.528Z,3.00
2018-08-07T03:25:55.743Z,3.27
2018-08-07T03:28:22.976Z,3.30
2018-08-07T03:30:50.107Z,3.27
2018-08-07T03:33:17.299Z,3.30
2018-08-07T03:35:44.563Z,3.10
2018-08-07T03:38:11.767Z,3.53
2018-08-07T03:40:39.087Z,2.97
2018-08-07T03:43:06.368Z,3.10
2018-08-07T03:45:33.574Z,3.07
2018-08-07T03:48:00.719Z,3.20
2018-08-07T03:50:28.333Z,3.03
2018-08-07T03:52:55.606Z,3.00
2018-08-07T03:55:22.761Z,3.20
2018-08-07T03:57:50.017Z,3.47
2018-08-07T04:00:20.876Z,3.30
2018-08-07T04:02:48.095Z,3.50
2018-08-07T04:05:15.470Z,3.57
2018-08-07T04:07:42.610Z,3.77
2018-08-07T04:10:11.339Z,3.70
2018-08-07T04:12:38.810Z,3.50
2018-08-07T04:15:07.472Z,3.50
2018-08-07T04:17:35.045Z,3.63
2018-08-07T04:20:02.555Z,3.73
2018-08-07T04:22:29.768Z,3.53
2018-08-07T04:24:58.941Z,3.80
2018-08-07T04:27:26.164Z,3.93
2018-08-07T04:29:53.430Z,3.63
2018-08-07T04:32:20.596Z,3.80
2018-08-07T04:34:47.817Z,3.80
2018-08-07T04:37:34.935Z,3.90
2018-08-07T04:40:02.208Z,3.90
2018-08-07T04:42:29.388Z,4.23
2018-08-07T04:44:56.560Z,3.67
2018-08-07T04:47:23.755Z,3.90
2018-08-07T04:49:50.930Z,4.00
2018-08-07T04:52:18.144Z,4.03
2018-08-07T04:54:45.680Z,3.70
2018-08-07T04:57:12.937Z,3.60
2018-08-07T04:59:40.089Z,3.73
2018-08-07T05:02:07.380Z,4.00
2018-08-07T05:04:53.370Z,4.13
2018-08-07T05:07:20.659Z,3.90
2018-08-07T05:09:47.828Z,3.80
2018-08-07T05:12:15.025Z,3.63
2018-08-07T05:14:58.442Z,3.77
2018-08-07T05:17:25.624Z,3.17
2018-08-07T05:19:52.771Z,3.50
2018-08-07T05:22:20.838Z,3.37
2018-08-07T05:24:48.308Z,3.80
2018-08-07T05:27:16.271Z,3.30
2018-08-07T05:29:43.552Z,3.80
2018-08-07T05:32:10.766Z,3.50
2018-08-07T05:34:37.994Z,3.50
2018-08-07T05:37:05.270Z,3.80
2018-08-07T05:39:44.868Z,3.33
2018-08-07T05:42:12.159Z,3.27
2018-08-07T05:44:39.381Z,3.83
2018-08-07T05:47:06.589Z,3.60
2018-08-07T05:49:33.796Z,3.50
2018-08-07T05:52:01.008Z,3.10
2018-08-07T05:54:30.218Z,3.80
2018-08-07T05:56:57.488Z,3.10
2018-08-07T05:59:24.771Z,3.80
2018-08-07T06:01:51.956Z,3.30
2018-08-07T06:04:19.279Z,3.37
2018-08-07T06:06:46.501Z,3.60
2018-08-07T06:09:13.843Z,3.13
2018-08-07T06:11:41.107Z,3.83
2018-08-07T06:14:08.278Z,2.90
2018-08-07T06:16:35.534Z,3.10
2018-08-07T06:19:02.733Z,2.80
2018-08-07T06:21:29.976Z,3.10
2018-08-07T06:23:57.479Z,2.97
2018-08-07T06:26:25.671Z,3.20
2018-08-07T06:28:53.156Z,3.00
2018-08-07T06:31:20.809Z,2.80
2018-08-07T06:33:48.174Z,2.87
2018-08-07T06:36:15.651Z,2.83
2018-08-07T06:38:42.804Z,3.13
2018-08-07T06:41:10.055Z,3.07
2018-08-07T06:43:37.506Z,2.80
2018-08-07T06:46:05.263Z,2.87
2018-08-07T06:48:32.491Z,2.77
2018-08-07T06:50:59.709Z,2.80
2018-08-07T06:53:26.903Z,2.60
2018-08-07T06:55:54.239Z,2.40
2018-08-07T06:58:21.455Z,2.93
2018-08-07T07:00:48.655Z,2.70
2018-08-07T07:03:15.966Z,2.80
2018-08-07T07:05:43.144Z,2.37
2018-08-07T07:08:10.290Z,2.90
2018-08-07T07:10:37.519Z,2.73
2018-08-07T07:13:04.806Z,2.40
2018-08-07T07:15:31.929Z,2.73
2018-08-07T07:17:59.163Z,2.80
2018-08-07T07:20:26.321Z,2.30
2018-08-07T07:22:53.508Z,2.63
2018-08-07T07:25:20.727Z,2.23
2018-08-07T07:27:47.881Z,2.37
2018-08-07T07:30:17.339Z,2.20
2018-08-07T07:32:45.866Z,2.20
2018-08-07T07:35:13.404Z,2.40
2018-08-07T07:37:40.754Z,2.20
2018-08-07T07:40:07.927Z,2.57
2018-08-07T07:42:35.603Z,2.20
2018-08-07T07:45:02.761Z,2.20
2018-08-07T07:47:30.003Z,2.37
2018-08-07T07:49:57.148Z,2.30
2018-08-07T07:52:24.284Z,2.47
2018-08-07T07:54:51.500Z,2.00
2018-08-07T07:57:18.701Z,2.30
2018-08-07T07:59:45.940Z,2.10
2018-08-07T08:02:13.144Z,2.07
2018-08-07T08:04:40.276Z,2.17
2018-08-07T08:07:07.435Z,2.10
2018-08-07T08:09:34.624Z,1.90
2018-08-07T08:12:01.905Z,2.10
2018-08-07T08:14:29.164Z,2.23
2018-08-07T08:16:56.374Z,2.00
2018-08-07T08:19:23.550Z,1.90
2018-08-07T08:21:50.683Z,2.17
2018-08-07T08:24:17.928Z,2.10
2018-08-07T08:26:45.122Z,2.00
2018-08-07T08:29:12.303Z,2.00
2018-08-07T08:31:39.963Z,1.87
2018-08-07T08:34:07.103Z,2.20
2018-08-07T08:36:34.328Z,2.10
2018-08-07T08:39:01.565Z,2.00
2018-08-07T08:41:32.662Z,2.00
2018-08-07T08:43:59.876Z,1.80
2018-08-07T08:46:27.147Z,1.87
2018-08-07T08:48:54.964Z,1.80
2018-08-07T08:51:22.440Z,1.90
2018-08-07T08:53:49.642Z,2.00
2018-08-07T08:56:16.817Z,2.07
2018-08-07T08:58:43.943Z,2.10
2018-08-07T09:01:11.260Z,2.07
2018-08-07T09:03:38.463Z,2.10
2018-08-07T09:06:05.616Z,2.00
2018-08-07T09:08:35.066Z,2.20
2018-08-07T09:11:03.139Z,2.70
2018-08-07T09:13:30.328Z,2.20
2018-08-07T09:15:57.577Z,2.40
2018-08-07T09:18:24.697Z,2.10
2018-08-07T09:20:51.862Z,2.60
2018-08-07T09:23:19.110Z,2.10
2018-08-07T09:25:46.739Z,2.30
2018-08-07T09:28:14.589Z,2.60
2018-08-07T09:30:41.777Z,2.50
2018-08-07T09:33:09.111Z,2.20
2018-08-07T09:35:36.235Z,2.17
2018-08-07T09:38:03.507Z,1.90
2018-08-07T09:40:31.792Z,2.00
2018-08-07T09:42:58.984Z,2.10
2018-08-07T09:45:28.591Z,2.17
2018-08-07T09:47:55.770Z,2.17
2018-08-07T09:50:22.976Z,1.75
2018-08-07T09:52:50.405Z,2.10
2018-08-07T09:55:17.563Z,2.03
2018-08-07T09:57:44.803Z,2.10
2018-08-07T10:00:23.985Z,2.27
2018-08-07T10:02:53.516Z,2.30
2018-08-07T10:05:22.373Z,2.58
2018-08-07T10:07:49.987Z,2.45
2018-08-07T10:10:17.390Z,1.92
2018-08-07T10:12:44.979Z,1.90
2018-08-07T10:15:12.571Z,2.17
2018-08-07T10:17:39.745Z,2.67
2018-08-07T10:20:08.341Z,2.40
2018-08-07T10:22:35.594Z,2.30
2018-08-07T10:25:03.363Z,2.42
2018-08-07T10:27:30.860Z,2.40
2018-08-07T10:29:58.018Z,2.27
2018-08-07T10:32:25.318Z,2.30
2018-08-07T10:34:52.479Z,2.20
2018-08-07T10:37:19.814Z,2.12
2018-08-07T10:39:47.699Z,2.40
2018-08-07T10:42:14.941Z,2.45
2018-08-07T10:44:42.227Z,2.10
2018-08-07T10:47:09.487Z,2.65
2018-08-07T10:49:36.649Z,2.42
2018-08-07T10:52:03.988Z,2.50
2018-08-07T10:54:31.251Z,2.52
2018-08-07T10:56:58.550Z,2.27
2018-08-07T10:59:26.032Z,2.40
2018-08-07T11:01:53.183Z,2.22
2018-08-07T11:04:20.446Z,2.33
2018-08-07T11:06:47.638Z,2.65
2018-08-07T11:09:14.865Z,2.62
2018-08-07T11:11:42.024Z,2.70
2018-08-07T11:14:09.229Z,2.30
2018-08-07T11:16:36.480Z,2.20
2018-08-07T11:19:03.756Z,2.25
2018-08-07T11:21:31.073Z,2.30
2018-08-07T11:23:58.225Z,2.50
2018-08-07T11:26:25.431Z,2.65
2018-08-07T11:28:52.712Z,2.40
2018-08-07T11:31:19.943Z,2.50
2018-08-07T11:33:47.095Z,2.42
2018-08-07T11:36:14.563Z,2.35
2018-08-07T11:38:41.735Z,2.30
2018-08-07T11:41:10.413Z,2.25
2018-08-07T11:43:37.706Z,2.50
2018-08-07T11:46:05.398Z,2.25
2018-08-07T11:48:32.669Z,2.27
2018-08-07T11:50:59.840Z,2.17
2018-08-07T11:53:27.547Z,2.08
2018-08-07T11:55:54.833Z,2.08
2018-08-07T11:58:22.130Z,2.05
2018-08-07T12:00:49.457Z,2.42
2018-08-07T12:03:16.636Z,2.25
2018-08-07T12:05:44.313Z,2.50
2018-08-07T12:08:11.524Z,2.35
2018-08-07T12:10:38.804Z,2.70
2018-08-07T12:13:06.173Z,2.35
2018-08-07T12:15:34.486Z,2.40
2018-08-07T12:18:02.064Z,2.50
2018-08-07T12:20:29.344Z,2.33
2018-08-07T12:22:56.617Z,2.65
2018-08-07T12:25:23.852Z,2.47
2018-08-07T12:27:51.279Z,2.80
2018-08-07T12:30:28.487Z,2.25
2018-08-07T12:32:56.121Z,2.70
2018-08-07T12:35:23.337Z,2.70
2018-08-07T12:37:50.538Z,2.85
2018-08-07T12:40:20.927Z,2.52
2018-08-07T12:42:48.563Z,2.50
2018-08-07T12:45:15.767Z,2.60
2018-08-07T12:47:43.677Z,2.50
2018-08-07T12:50:12.216Z,2.77
2018-08-07T12:52:39.883Z,2.77
2018-08-07T12:55:10.040Z,2.52
2018-08-07T12:57:37.327Z,2.58
2018-08-07T13:00:09.758Z,2.87
2018-08-07T13:02:36.978Z,3.00
2018-08-07T13:05:04.520Z,3.02
2018-08-07T13:07:31.715Z,2.67
2018-08-07T13:09:59.360Z,2.77
2018-08-07T13:12:26.693Z,2.55
2018-08-07T13:14:53.978Z,2.92
2018-08-07T13:17:21.441Z,2.70
2018-08-07T13:19:48.635Z,2.95
2018-08-07T13:22:15.848Z,3.00
2018-08-07T13:24:43.495Z,2.90
2018-08-07T13:27:10.869Z,2.90
2018-08-07T13:29:38.209Z,2.98
2018-08-07T13:32:05.787Z,2.80
2018-08-07T13:34:33.105Z,3.00
2018-08-07T13:37:00.385Z,3.08
2018-08-07T13:39:27.689Z,2.95
2018-08-07T13:41:55.226Z,3.12
2018-08-07T13:44:22.563Z,3.20
2018-08-07T13:46:49.836Z,3.12
2018-08-07T13:49:17.036Z,3.02
2018-08-07T13:51:44.707Z,3.05
2018-08-07T13:54:12.192Z,2.75
2018-08-07T13:56:42.806Z,2.90
2018-08-07T13:59:10.111Z,2.80
2018-08-07T14:01:37.298Z,2.80
2018-08-07T14:04:04.565Z,3.05
2018-08-07T14:06:32.132Z,2.90
2018-08-07T14:08:59.343Z,3.02
2018-08-07T14:11:26.652Z,2.90
2018-08-07T14:13:53.885Z,3.00
2018-08-07T14:16:21.296Z,3.35
2018-08-07T14:18:48.633Z,3.10
2018-08-07T14:21:15.851Z,3.00
2018-08-07T14:23:43.884Z,2.75
2018-08-07T14:26:11.129Z,3.12
2018-08-07T14:28:38.400Z,3.02
2018-08-07T14:31:07.939Z,3.12
2018-08-07T14:33:35.187Z,3.02
2018-08-07T14:36:02.631Z,3.25
2018-08-07T14:38:29.980Z,3.20
2018-08-07T14:40:57.173Z,3.47
2018-08-07T14:43:24.602Z,3.00
2018-08-07T14:45:51.916Z,3.30
2018-08-07T14:48:19.174Z,3.35
2018-08-07T14:50:46.478Z,3.42
2018-08-07T14:53:14.477Z,3.12
2018-08-07T14:55:41.936Z,3.15
2018-08-07T14:58:09.209Z,3.40
2018-08-07T15:00:36.564Z,3.83
2018-08-07T15:03:04.093Z,3.42
2018-08-07T15:05:31.404Z,3.20
2018-08-07T15:07:58.807Z,3.50
2018-08-07T15:10:27.039Z,3.87
2018-08-07T15:12:55.454Z,3.62
2018-08-07T15:15:25.520Z,3.30
2018-08-07T15:17:52.784Z,3.65
2018-08-07T15:20:22.069Z,3.15
2018-08-07T15:22:50.202Z,3.80
2018-08-07T15:25:18.251Z,3.77
2018-08-07T15:27:45.699Z,3.37
2018-08-07T15:30:15.914Z,3.37
2018-08-07T15:32:44.409Z,3.50
2018-08-07T15:35:20.241Z,3.60
2018-08-07T15:37:47.667Z,3.47
2018-08-07T15:40:15.639Z,3.47
2018-08-07T15:42:43.967Z,3.58
2018-08-07T15:45:12.292Z,3.60
2018-08-07T15:47:39.572Z,3.72
2018-08-07T15:50:12.351Z,3.30
2018-08-07T15:52:40.331Z,3.35
2018-08-07T15:55:08.254Z,3.33
2018-08-07T15:57:35.559Z,3.27
2018-08-07T16:00:04.072Z,3.72
2018-08-07T16:02:31.536Z,3.80
2018-08-07T16:04:58.848Z,3.30
2018-08-07T16:07:26.210Z,3.45
2018-08-07T16:09:53.926Z,3.50
2018-08-07T16:12:21.342Z,3.40
2018-08-07T16:14:48.582Z,3.50
2018-08-07T16:17:15.752Z,3.70
2018-08-07T16:19:43.280Z,3.55
2018-08-07T16:22:10.598Z,3.25
2018-08-07T16:24:37.982Z,3.40
2018-08-07T16:27:05.603Z,3.50
2018-08-07T16:29:33.240Z,3.30
2018-08-07T16:32:00.828Z,3.65
2018-08-07T16:34:28.266Z,3.17
2018-08-07T16:36:55.713Z,4.12
2018-08-07T16:39:23.095Z,3.65
2018-08-07T16:41:50.478Z,3.37
2018-08-07T16:44:17.954Z,3.62
2018-08-07T16:46:45.389Z,3.52
2018-08-07T16:49:12.789Z,3.08
2018-08-07T16:51:41.148Z,2.75
2018-08-07T16:54:09.039Z,2.72
2018-08-07T16:56:36.840Z,2.72
2018-08-07T16:59:04.188Z,2.80
2018-08-07T17:01:31.503Z,3.00
2018-08-07T17:03:58.932Z,2.50
2018-08-07T17:06:26.238Z,2.70
2018-08-07T17:08:53.845Z,2.77
2018-08-07T17:11:21.288Z,3.03
2018-08-07T17:13:48.501Z,2.70
2018-08-07T17:16:15.675Z,2.63
2018-08-07T17:18:43.421Z,2.40
2018-08-07T17:21:10.814Z,2.73
2018-08-07T17:23:38.177Z,2.60
2018-08-07T17:26:05.583Z,2.53
2018-08-07T17:28:33.787Z,2.47
2018-08-07T17:31:01.280Z,2.43
2018-08-07T17:33:28.853Z,2.43
2018-08-07T17:35:56.254Z,2.50
2018-08-07T17:38:23.632Z,2.77
2018-08-07T17:40:51.088Z,2.93
2018-08-07T17:43:18.499Z,2.20
2018-08-07T17:45:45.841Z,2.60
2018-08-07T17:48:13.340Z,2.70
2018-08-07T17:50:41.112Z,2.53
2018-08-07T17:53:08.409Z,2.20
2018-08-07T17:55:35.808Z,2.73
2018-08-07T17:58:04.384Z,2.53
2018-08-07T18:00:31.668Z,2.40
2018-08-07T18:02:59.179Z,2.70
2018-08-07T18:05:29.797Z,2.33
2018-08-07T18:07:57.907Z,2.53
2018-08-07T18:10:26.429Z,2.50
2018-08-07T18:12:53.892Z,2.30
2018-08-07T18:15:22.262Z,2.70
2018-08-07T18:17:49.914Z,2.20
2018-08-07T18:20:20.329Z,2.73
2018-08-07T18:22:47.984Z,2.60
2018-08-07T18:25:15.261Z,3.37
2018-08-07T18:27:42.657Z,2.70
2018-08-07T18:30:14.320Z,2.80
2018-08-07T18:32:43.149Z,3.13
2018-08-07T18:35:15.255Z,2.87
2018-08-07T18:37:42.662Z,2.60
2018-08-07T18:40:14.416Z,2.50
2018-08-07T18:42:43.052Z,2.33
2018-08-07T18:45:13.608Z,2.93
2018-08-07T18:47:41.826Z,2.60
2018-08-07T18:50:12.568Z,2.50
2018-08-07T18:52:40.275Z,2.83
2018-08-07T18:55:11.163Z,2.67
2018-08-07T18:57:42.311Z,2.50
2018-08-07T19:00:12.379Z,2.60
2018-08-07T19:02:40.982Z,2.87
2018-08-07T19:05:09.601Z,2.70
2018-08-07T19:07:39.908Z,3.00
2018-08-07T19:10:10.201Z,2.80
2018-08-07T19:12:37.675Z,3.37
2018-08-07T19:15:05.904Z,2.90
2018-08-07T19:17:33.538Z,2.70
2018-08-07T19:20:06.099Z,2.47
2018-08-07T19:22:33.439Z,2.83
2018-08-07T19:25:01.018Z,2.60
2018-08-07T19:27:28.330Z,2.90
2018-08-07T19:29:56.463Z,2.70
2018-08-07T19:32:24.562Z,3.30
2018-08-07T19:34:55.582Z,3.90
2018-08-07T19:37:23.733Z,3.30
2018-08-07T19:39:53.217Z,3.30
2018-08-07T19:42:22.616Z,2.80
2018-08-07T19:44:51.497Z,3.00
2018-08-07T19:47:19.067Z,3.10
2018-08-07T19:50:57.955Z,2.80
2018-08-07T19:53:26.039Z,2.83
2018-08-07T19:55:53.793Z,3.00
2018-08-07T19:58:21.557Z,3.23
2018-08-07T20:00:48.919Z,3.20
2018-08-07T20:03:17.193Z,2.80
2018-08-07T20:05:54.816Z,2.90
2018-08-07T20:08:24.341Z,2.93
2018-08-07T20:10:52.646Z,3.00
2018-08-07T20:13:20.600Z,3.17
2018-08-07T20:15:48.200Z,3.00
2018-08-07T20:18:16.055Z,2.90
2018-08-07T20:20:47.063Z,3.20
2018-08-07T20:23:15.004Z,3.20
2018-08-07T20:25:43.149Z,3.30
2018-08-07T20:28:10.592Z,3.40
2018-08-07T20:30:37.933Z,3.20
2018-08-07T20:33:05.275Z,2.80
2018-08-07T20:35:32.515Z,3.27
2018-08-07T20:38:00.262Z,3.13
2018-08-07T20:40:27.857Z,3.13
2018-08-07T20:42:56.795Z,3.33
2018-08-07T20:45:24.321Z,3.10
2018-08-07T20:47:51.669Z,3.47
2018-08-07T20:50:21.251Z,3.03
2018-08-07T20:52:49.744Z,3.30
2018-08-07T20:55:17.247Z,2.87
2018-08-07T20:57:45.002Z,2.90
2018-08-07T21:00:19.016Z,3.40
2018-08-07T21:02:46.633Z,3.50
2018-08-07T21:05:13.998Z,3.30
2018-08-07T21:07:41.804Z,3.20
2018-08-07T21:10:12.245Z,3.33
2018-08-07T21:12:40.876Z,3.50
2018-08-07T21:15:08.569Z,3.53
2018-08-07T21:17:36.237Z,3.50
2018-08-07T21:20:04.887Z,3.20
2018-08-07T21:22:32.214Z,3.17
2018-08-07T21:24:59.589Z,3.13
2018-08-07T21:27:26.813Z,3.33
2018-08-07T21:29:53.951Z,3.40
2018-08-07T21:32:21.645Z,3.43
2018-08-07T21:34:54.454Z,3.50
2018-08-07T21:37:22.120Z,3.30
2018-08-07T21:39:49.483Z,3.20
2018-08-07T21:42:16.832Z,3.53
2018-08-07T21:44:44.069Z,3.17
2018-08-07T21:47:11.364Z,3.40
2018-08-07T21:49:38.597Z,3.20
2018-08-07T21:52:06.545Z,3.03
2018-08-07T21:54:33.791Z,3.47
2018-08-07T21:57:01.229Z,3.17
2018-08-07T21:59:28.819Z,3.07
2018-08-07T22:01:56.266Z,2.80
2018-08-07T22:04:23.441Z,3.03
2018-08-07T22:06:51.053Z,3.10
2018-08-07T22:09:18.328Z,3.07
2018-08-07T22:11:45.659Z,2.90
2018-08-07T22:14:13.032Z,3.17
2018-08-07T22:16:40.317Z,2.97
2018-08-07T22:19:07.683Z,2.70
2018-08-07T22:21:35.211Z,2.83
2018-08-07T22:24:02.518Z,2.97
2018-08-07T22:26:29.724Z,3.00
2018-08-07T22:28:57.096Z,2.97
2018-08-07T22:31:24.683Z,3.13
2018-08-07T22:33:52.372Z,3.00
2018-08-07T22:36:19.779Z,3.13
2018-08-07T22:38:46.992Z,3.00
2018-08-07T22:41:14.201Z,2.73
2018-08-07T22:43:41.456Z,2.63
2018-08-07T22:46:08.689Z,2.90
2018-08-07T22:48:35.902Z,3.07
2018-08-07T22:51:03.190Z,2.87
2018-08-07T22:53:30.441Z,2.83
2018-08-07T22:55:58.193Z,2.83
2018-08-07T22:58:25.528Z,3.10
2018-08-07T23:00:52.757Z,2.80
2018-08-07T23:03:20.013Z,2.83
2018-08-07T23:05:47.346Z,2.90
2018-08-07T23:08:14.944Z,2.90
2018-08-07T23:10:42.362Z,3.00
2018-08-07T23:13:09.648Z,3.10
2018-08-07T23:15:36.848Z,2.90
2018-08-07T23:18:04.665Z,3.00
2018-08-07T23:20:36.842Z,2.80
2018-08-07T23:23:04.053Z,3.07
2018-08-07T23:25:31.337Z,2.67
2018-08-07T23:27:58.718Z,3.00
2018-08-07T23:30:26.024Z,2.77
2018-08-07T23:32:53.291Z,2.87
2018-08-07T23:35:20.774Z,2.80
2018-08-07T23:38:06.060Z,2.70
2018-08-07T23:40:33.543Z,2.70
2018-08-07T23:43:01.783Z,3.00
2018-08-07T23:45:29.366Z,3.50
2018-08-07T23:47:56.718Z,3.20
2018-08-07T23:50:36.349Z,3.20
2018-08-07T23:53:03.617Z,2.83
2018-08-07T23:55:30.800Z,3.10
2018-08-07T23:57:58.109Z,2.93
